createdAt,value
2017-09-23T00:01:27.091Z,13.77
2017-09-23T00:03:54.538Z,14.60
2017-09-23T00:06:21.979Z,14.60
2017-09-23T00:08:50.206Z,14.68
2017-09-23T00:11:17.670Z,13.90
2017-09-23T00:13:45.125Z,14.90
2017-09-23T00:16:12.580Z,13.68
2017-09-23T00:18:40.024Z,14.35
2017-09-23T00:21:07.467Z,15.30
2017-09-23T00:23:34.903Z,14.10
2017-09-23T00:26:02.359Z,14.60
2017-09-23T00:28:30.559Z,14.70
2017-09-23T00:30:58.043Z,14.15
2017-09-23T00:33:25.495Z,14.33
2017-09-23T00:35:52.971Z,13.95
2017-09-23T00:38:21.910Z,15.50
2017-09-23T00:40:49.394Z,15.20
2017-09-23T00:43:16.845Z,15.80
2017-09-23T00:45:44.359Z,16.42
2017-09-23T00:48:12.560Z,15.95
2017-09-23T00:50:40.002Z,14.95
2017-09-23T00:53:07.486Z,19.52
2017-09-23T00:55:34.938Z,14.87
2017-09-23T00:58:02.414Z,14.50
2017-09-23T01:00:29.863Z,16.50
2017-09-23T01:02:57.301Z,15.82
2017-09-23T01:08:03.880Z,16.73
2017-09-23T01:10:31.361Z,16.10
2017-09-23T01:12:58.798Z,17.98
2017-09-23T01:15:26.258Z,15.40
2017-09-23T01:17:53.697Z,18.70
2017-09-23T01:20:21.268Z,18.48
2017-09-23T01:22:48.778Z,17.02
2017-09-23T01:25:16.982Z,18.37
2017-09-23T01:27:44.430Z,18.12
2017-09-23T01:30:11.866Z,18.60
2017-09-23T01:32:40.082Z,17.98
2017-09-23T01:35:07.571Z,15.98
2017-09-23T01:37:35.031Z,16.00
2017-09-23T01:40:02.556Z,16.30
2017-09-23T01:42:30.016Z,17.33
2017-09-23T01:44:57.457Z,16.47
2017-09-23T01:47:24.929Z,19.65
2017-09-23T01:49:52.407Z,17.50
2017-09-23T01:52:19.870Z,17.60
2017-09-23T01:54:47.315Z,18.35
2017-09-23T01:57:14.770Z,18.30
2017-09-23T01:59:42.223Z,17.92
2017-09-23T02:02:09.666Z,16.87
2017-09-23T02:04:37.104Z,18.40
2017-09-23T02:07:04.553Z,18.27
2017-09-23T02:09:31.994Z,17.57
2017-09-23T02:12:00.242Z,17.25
2017-09-23T02:14:27.686Z,18.10
2017-09-23T02:16:55.133Z,17.33
2017-09-23T02:19:22.566Z,19.45
2017-09-23T02:21:50.031Z,18.12
2017-09-23T02:24:17.471Z,18.77
2017-09-23T02:26:44.908Z,18.23
2017-09-23T02:29:13.142Z,18.17
2017-09-23T02:31:40.601Z,18.40
2017-09-23T02:34:08.044Z,21.98
2017-09-23T02:36:35.514Z,20.12
2017-09-23T02:39:03.063Z,20.90
2017-09-23T02:41:30.524Z,21.75
2017-09-23T02:43:58.407Z,20.30
2017-09-23T02:46:25.840Z,21.27
2017-09-23T02:48:53.298Z,22.08
2017-09-23T02:51:20.768Z,20.60
2017-09-23T02:53:48.311Z,20.43
2017-09-23T02:56:15.792Z,21.67
2017-09-23T02:58:43.330Z,21.45
2017-09-23T03:01:10.790Z,20.58
2017-09-23T03:03:38.297Z,21.50
2017-09-23T03:06:05.744Z,21.62
2017-09-23T03:08:33.963Z,21.08
2017-09-23T03:11:01.405Z,20.45
2017-09-23T03:13:28.884Z,20.75
2017-09-23T03:15:56.343Z,19.35
2017-09-23T03:18:23.812Z,22.90
2017-09-23T03:20:51.256Z,20.17
2017-09-23T03:23:18.710Z,21.20
2017-09-23T03:25:46.156Z,21.80
2017-09-23T03:28:13.630Z,21.45
2017-09-23T03:30:41.074Z,21.90
2017-09-23T03:33:08.537Z,22.27
2017-09-23T03:35:36.018Z,21.87
2017-09-23T03:38:03.525Z,21.42
2017-09-23T03:40:31.012Z,20.47
2017-09-23T03:42:58.446Z,19.25
2017-09-23T03:45:25.895Z,21.85
2017-09-23T03:47:53.352Z,20.73
2017-09-23T03:50:20.826Z,19.80
2017-09-23T03:52:48.266Z,20.77
2017-09-23T03:55:15.712Z,21.20
2017-09-23T03:57:43.150Z,20.10
2017-09-23T04:00:11.366Z,20.33
2017-09-23T04:02:38.803Z,19.50
2017-09-23T04:05:06.254Z,19.00
2017-09-23T04:07:33.690Z,20.40
2017-09-23T04:10:01.926Z,18.70
2017-09-23T04:12:29.352Z,20.75
2017-09-23T04:14:56.959Z,20.27
2017-09-23T04:17:24.398Z,21.15
2017-09-23T04:19:51.839Z,20.92
2017-09-23T04:22:19.314Z,20.55
2017-09-23T04:24:46.754Z,20.08
2017-09-23T04:27:14.198Z,19.27
2017-09-23T04:29:41.648Z,18.95
2017-09-23T04:32:09.119Z,19.10
2017-09-23T04:34:36.584Z,21.02
2017-09-23T04:37:04.020Z,19.77
2017-09-23T04:39:31.474Z,20.45
2017-09-23T04:41:58.922Z,20.60
2017-09-23T04:44:26.530Z,20.23
2017-09-23T04:46:53.993Z,20.20
2017-09-23T04:49:21.551Z,19.58
2017-09-23T04:51:49.166Z,20.98
2017-09-23T04:54:16.602Z,22.60
2017-09-23T04:56:44.090Z,21.75
2017-09-23T04:59:11.527Z,21.15
2017-09-23T05:01:39.011Z,20.35
2017-09-23T05:04:06.444Z,21.75
2017-09-23T05:06:33.902Z,21.45
2017-09-23T05:09:01.318Z,21.83
2017-09-23T05:11:29.564Z,21.80
2017-09-23T05:13:56.990Z,20.70
2017-09-23T05:16:24.427Z,20.40
2017-09-23T05:18:51.919Z,20.40
2017-09-23T05:21:19.351Z,21.12
2017-09-23T05:23:46.831Z,20.95
2017-09-23T05:26:14.290Z,20.92
2017-09-23T05:28:41.746Z,21.45
2017-09-23T05:31:09.188Z,21.27
2017-09-23T05:33:36.627Z,22.20
2017-09-23T05:36:04.115Z,20.55
2017-09-23T05:38:31.673Z,19.45
2017-09-23T05:40:59.106Z,19.83
2017-09-23T05:43:26.546Z,18.67
2017-09-23T05:45:53.982Z,21.23
2017-09-23T05:48:22.207Z,22.35
2017-09-23T05:50:49.634Z,21.90
2017-09-23T05:53:17.077Z,19.95
2017-09-23T05:55:44.605Z,21.67
2017-09-23T05:58:12.045Z,21.90
2017-09-23T06:00:39.562Z,21.45
2017-09-23T06:03:07.020Z,21.73
2017-09-23T06:05:34.522Z,20.90
2017-09-23T06:08:02.030Z,20.60
2017-09-23T06:10:30.219Z,20.60
2017-09-23T06:12:57.703Z,19.37
2017-09-23T06:15:25.263Z,20.20
2017-09-23T06:17:52.694Z,20.20
2017-09-23T06:20:20.134Z,22.58
2017-09-23T06:22:47.592Z,21.27
2017-09-23T06:25:15.034Z,19.75
2017-09-23T06:27:42.478Z,21.98
2017-09-23T06:30:10.700Z,22.92
2017-09-23T06:32:38.138Z,21.67
2017-09-23T06:35:05.630Z,21.20
2017-09-23T06:37:33.090Z,22.13
2017-09-23T06:40:00.539Z,21.23
2017-09-23T06:42:27.983Z,21.62
2017-09-23T06:44:55.471Z,19.92
2017-09-23T06:47:22.920Z,20.15
2017-09-23T06:49:50.475Z,20.73
2017-09-23T06:52:18.019Z,19.73
2017-09-23T06:54:45.568Z,21.25
2017-09-23T06:57:13.018Z,21.60
2017-09-23T06:59:40.487Z,21.40
2017-09-23T07:02:07.932Z,21.20
2017-09-23T07:04:35.510Z,21.98
2017-09-23T07:07:02.944Z,21.62
2017-09-23T07:09:30.391Z,22.00
2017-09-23T07:11:57.858Z,23.12
2017-09-23T07:14:25.403Z,22.65
2017-09-23T07:16:52.835Z,21.50
2017-09-23T07:19:20.262Z,22.08
2017-09-23T07:21:48.510Z,26.08
2017-09-23T07:24:16.001Z,21.48
2017-09-23T07:26:44.253Z,22.02
2017-09-23T07:29:11.770Z,23.00
2017-09-23T07:31:39.189Z,21.45
2017-09-23T07:34:06.723Z,24.40
2017-09-23T07:36:34.258Z,24.17
2017-09-23T07:39:01.703Z,24.58
2017-09-23T07:41:29.198Z,24.42
2017-09-23T07:43:56.662Z,25.08
2017-09-23T07:46:24.106Z,24.30
2017-09-23T07:48:51.747Z,25.23
2017-09-23T07:51:19.220Z,23.05
2017-09-23T07:53:46.794Z,22.25
2017-09-23T07:56:14.243Z,23.00
2017-09-23T07:58:41.706Z,23.62
2017-09-23T08:01:09.154Z,23.23
2017-09-23T08:03:36.594Z,23.58
2017-09-23T08:06:04.042Z,23.05
2017-09-23T08:08:31.477Z,23.83
2017-09-23T08:10:59.116Z,23.80
2017-09-23T08:13:27.327Z,23.87
2017-09-23T08:15:54.764Z,22.62
2017-09-23T08:18:22.231Z,21.23
2017-09-23T08:20:49.715Z,22.83
2017-09-23T08:23:17.263Z,23.80
2017-09-23T08:25:44.695Z,24.48
2017-09-23T08:28:12.196Z,23.58
2017-09-23T08:30:39.729Z,23.20
2017-09-23T08:33:07.194Z,24.40
2017-09-23T08:35:34.766Z,24.50
2017-09-23T08:38:02.235Z,24.80
2017-09-23T08:40:29.666Z,26.08
2017-09-23T08:42:57.149Z,25.77
2017-09-23T08:45:25.499Z,29.67
2017-09-23T08:47:52.994Z,30.58
2017-09-23T08:50:20.592Z,29.60
2017-09-23T08:52:48.150Z,31.02
2017-09-23T08:55:15.578Z,31.50
2017-09-23T08:57:43.166Z,30.92
2017-09-23T09:00:10.600Z,30.80
2017-09-23T09:02:38.141Z,29.90
2017-09-23T09:05:06.359Z,30.90
2017-09-23T09:07:33.778Z,30.55
2017-09-23T09:10:02.012Z,32.10
2017-09-23T09:12:29.455Z,31.27
2017-09-23T09:14:56.927Z,31.73
2017-09-23T09:17:24.376Z,29.70
2017-09-23T09:19:51.934Z,29.98
2017-09-23T09:22:19.403Z,29.83
2017-09-23T09:24:46.869Z,30.95
2017-09-23T09:27:14.317Z,28.80
2017-09-23T09:29:41.776Z,26.95
2017-09-23T09:32:09.215Z,26.67
2017-09-23T09:34:36.662Z,25.60
2017-09-23T09:37:04.102Z,28.00
2017-09-23T09:39:31.560Z,25.43
2017-09-23T09:41:58.995Z,29.83
2017-09-23T09:44:26.467Z,28.60
2017-09-23T09:46:53.916Z,26.10
2017-09-23T09:49:21.418Z,26.20
2017-09-23T09:51:48.854Z,27.17
2017-09-23T09:54:16.322Z,27.15
2017-09-23T09:56:43.759Z,27.20
2017-09-23T09:59:11.230Z,28.52
2017-09-23T10:01:38.671Z,28.77
2017-09-23T10:04:06.108Z,25.70
2017-09-23T10:06:33.648Z,26.98
2017-09-23T10:09:01.976Z,25.75
2017-09-23T10:11:29.433Z,25.65
2017-09-23T10:13:56.904Z,25.10
2017-09-23T10:16:25.205Z,25.90
2017-09-23T10:18:52.817Z,24.90
2017-09-23T10:21:20.288Z,26.35
2017-09-23T10:23:48.494Z,24.83
2017-09-23T10:26:15.954Z,24.17
2017-09-23T10:28:43.400Z,23.30
2017-09-23T10:31:10.848Z,22.02
2017-09-23T10:33:38.345Z,20.60
2017-09-23T10:36:05.791Z,19.27
2017-09-23T10:38:33.226Z,17.97
2017-09-23T10:41:00.675Z,18.20
2017-09-23T10:43:28.129Z,19.85
2017-09-23T10:45:55.574Z,21.58
2017-09-23T10:48:23.791Z,20.17
2017-09-23T10:50:51.230Z,18.25
2017-09-23T10:53:18.717Z,18.90
2017-09-23T10:55:46.240Z,20.20
2017-09-23T10:58:13.682Z,19.08
2017-09-23T11:00:41.304Z,18.10
2017-09-23T11:03:08.761Z,16.20
2017-09-23T11:05:36.222Z,18.45
2017-09-23T11:08:03.764Z,16.67
2017-09-23T11:10:31.191Z,16.58
2017-09-23T11:12:59.403Z,17.43
2017-09-23T11:15:26.850Z,17.85
2017-09-23T11:17:54.386Z,18.98
2017-09-23T11:20:21.826Z,18.05
2017-09-23T11:22:50.063Z,16.60
2017-09-23T11:25:17.525Z,18.10
2017-09-23T11:27:44.990Z,18.30
2017-09-23T11:30:12.593Z,15.93
2017-09-23T11:32:40.203Z,16.20
2017-09-23T11:35:07.699Z,16.73
2017-09-23T11:37:35.161Z,17.48
2017-09-23T11:40:02.702Z,15.75
2017-09-23T11:42:30.174Z,17.30
2017-09-23T11:44:57.633Z,18.92
2017-09-23T11:47:25.071Z,18.50
2017-09-23T11:49:52.510Z,15.57
2017-09-23T11:52:19.974Z,13.80
2017-09-23T11:54:47.410Z,16.42
2017-09-23T11:57:14.862Z,15.88
2017-09-23T11:59:42.305Z,16.90
2017-09-23T12:02:09.847Z,15.80
2017-09-23T12:04:38.081Z,14.87
2017-09-23T12:07:05.532Z,15.43
2017-09-23T12:09:33.186Z,17.17
2017-09-23T12:12:00.638Z,14.80
2017-09-23T12:14:28.087Z,15.27
2017-09-23T12:16:56.334Z,14.80
2017-09-23T12:19:23.795Z,13.73
2017-09-23T12:21:51.268Z,16.37
2017-09-23T12:24:18.804Z,14.53
2017-09-23T12:26:46.727Z,18.40
2017-09-23T12:29:14.170Z,16.77
2017-09-23T12:31:41.651Z,15.52
2017-09-23T12:34:09.128Z,15.65
2017-09-23T12:36:36.686Z,15.73
2017-09-23T12:39:04.145Z,16.77
2017-09-23T12:41:31.586Z,17.48
2017-09-23T12:43:59.051Z,17.15
2017-09-23T12:46:26.509Z,17.42
2017-09-23T12:48:54.144Z,17.70
2017-09-23T12:51:21.598Z,12.70
2017-09-23T12:53:49.051Z,12.50
2017-09-23T12:56:16.520Z,11.60
2017-09-23T12:58:44.171Z,12.02
2017-09-23T13:01:11.763Z,11.12
2017-09-23T13:03:39.334Z,11.80
2017-09-23T13:06:06.798Z,12.25
2017-09-23T13:08:34.340Z,11.60
2017-09-23T13:11:01.879Z,12.40
2017-09-23T13:13:29.335Z,12.45
2017-09-23T13:15:56.798Z,11.68
2017-09-23T13:18:24.270Z,11.63
2017-09-23T13:20:51.692Z,11.93
2017-09-23T13:23:19.151Z,13.82
2017-09-23T13:25:46.639Z,14.10
2017-09-23T13:28:14.088Z,15.30
2017-09-23T13:30:41.539Z,15.50
2017-09-23T13:33:08.974Z,16.27
2017-09-23T13:35:36.654Z,15.47
2017-09-23T13:38:04.143Z,15.85
2017-09-23T13:40:31.605Z,19.12
2017-09-23T13:42:59.034Z,15.10
2017-09-23T13:45:26.702Z,14.98
2017-09-23T13:47:54.122Z,16.33
2017-09-23T13:50:21.650Z,16.65
2017-09-23T13:52:49.152Z,16.40
2017-09-23T13:55:16.656Z,15.85
2017-09-23T13:57:44.863Z,16.42
2017-09-23T14:00:12.340Z,15.57
2017-09-23T14:02:39.785Z,16.58
2017-09-23T14:05:07.227Z,16.67
2017-09-23T14:07:34.702Z,15.45
2017-09-23T14:10:02.197Z,16.27
2017-09-23T14:12:29.728Z,17.20
2017-09-23T14:14:57.184Z,14.35
2017-09-23T14:17:24.635Z,15.00
2017-09-23T14:19:52.091Z,14.57
2017-09-23T14:22:19.578Z,14.50
2017-09-23T14:24:47.014Z,15.48
2017-09-23T14:27:14.569Z,15.30
2017-09-23T14:29:42.164Z,14.35
2017-09-23T14:32:10.376Z,15.85
2017-09-23T14:34:37.869Z,13.60
2017-09-23T14:37:05.527Z,14.05
2017-09-23T14:39:33.042Z,13.30
2017-09-23T14:42:00.512Z,13.60
2017-09-23T14:44:27.967Z,13.35
2017-09-23T14:46:55.524Z,13.00
2017-09-23T14:49:22.942Z,14.63
2017-09-23T14:51:51.171Z,14.27
2017-09-23T14:54:18.712Z,14.30
2017-09-23T14:56:46.214Z,14.40
2017-09-23T14:59:13.731Z,14.10
2017-09-23T15:01:41.229Z,14.13
2017-09-23T15:04:08.666Z,14.30
2017-09-23T15:06:36.135Z,13.60
2017-09-23T15:09:03.590Z,13.70
2017-09-23T15:11:31.063Z,13.52
2017-09-23T15:13:59.498Z,15.68
2017-09-23T15:16:27.198Z,16.12
2017-09-23T15:18:54.667Z,15.05
2017-09-23T15:21:22.970Z,17.37
2017-09-23T15:23:50.441Z,17.50
2017-09-23T15:26:17.899Z,17.67
2017-09-23T15:28:45.400Z,17.48
2017-09-23T15:31:13.014Z,18.33
2017-09-23T15:33:40.490Z,16.85
2017-09-23T15:36:07.935Z,17.37
2017-09-23T15:38:35.479Z,18.52
2017-09-23T15:41:02.964Z,19.10
2017-09-23T15:43:30.505Z,19.42
2017-09-23T15:45:57.940Z,18.75
2017-09-23T15:48:26.146Z,20.30
2017-09-23T15:50:53.635Z,20.50
2017-09-23T15:53:21.162Z,18.33
2017-09-23T15:55:48.618Z,17.67
2017-09-23T15:58:16.060Z,16.35
2017-09-23T16:00:43.523Z,15.00
2017-09-23T16:03:11.072Z,14.87
2017-09-23T16:05:38.593Z,14.45
2017-09-23T16:08:06.176Z,15.50
2017-09-23T16:10:33.669Z,14.10
2017-09-23T16:13:01.151Z,14.40
2017-09-23T16:15:28.610Z,14.60
2017-09-23T16:17:56.074Z,14.68
2017-09-23T16:20:24.393Z,14.00
2017-09-23T16:22:51.878Z,13.45
2017-09-23T16:25:19.370Z,12.68
2017-09-23T16:27:47.647Z,11.50
2017-09-23T16:30:15.885Z,11.57
2017-09-23T16:32:43.327Z,11.25
2017-09-23T16:35:10.795Z,10.50
2017-09-23T16:37:38.235Z,11.45
2017-09-23T16:40:05.742Z,12.40
2017-09-23T16:42:33.283Z,12.07
2017-09-23T16:45:00.760Z,11.57
2017-09-23T16:47:28.978Z,11.38
2017-09-23T16:49:56.446Z,11.30
2017-09-23T16:52:23.904Z,11.85
2017-09-23T16:54:51.377Z,11.80
2017-09-23T16:57:18.838Z,12.70
2017-09-23T16:59:47.304Z,11.43
2017-09-23T17:02:14.762Z,11.88
2017-09-23T17:04:42.208Z,11.95
2017-09-23T17:07:09.651Z,12.73
2017-09-23T17:09:37.146Z,12.00
2017-09-23T17:12:04.590Z,11.90
2017-09-23T17:14:32.142Z,12.57
2017-09-23T17:16:59.686Z,12.35
2017-09-23T17:19:27.127Z,12.37
2017-09-23T17:21:54.562Z,11.95
2017-09-23T17:24:22.786Z,13.77
2017-09-23T17:26:50.240Z,12.80
2017-09-23T17:29:17.671Z,13.20
2017-09-23T17:31:45.150Z,12.85
2017-09-23T17:34:12.658Z,13.38
2017-09-23T17:36:40.218Z,13.05
2017-09-23T17:39:07.867Z,13.85
2017-09-23T17:41:36.085Z,14.18
2017-09-23T17:44:03.567Z,14.93
2017-09-23T17:46:31.136Z,15.88
2017-09-23T17:48:58.574Z,17.15
2017-09-23T17:51:26.028Z,15.30
2017-09-23T17:53:53.493Z,15.05
2017-09-23T17:56:20.963Z,15.80
2017-09-23T17:58:48.527Z,15.70
2017-09-23T18:01:16.154Z,17.15
2017-09-23T18:03:43.719Z,18.25
2017-09-23T18:06:11.229Z,16.83
2017-09-23T18:08:39.490Z,17.70
2017-09-23T18:11:06.922Z,17.83
2017-09-23T18:13:34.383Z,18.35
2017-09-23T18:16:01.943Z,18.40
2017-09-23T18:18:29.441Z,18.45
2017-09-23T18:20:57.634Z,19.23
2017-09-23T18:23:25.143Z,20.45
2017-09-23T18:25:52.590Z,19.95
2017-09-23T18:28:20.126Z,19.35
2017-09-23T18:30:47.686Z,19.23
2017-09-23T18:33:15.191Z,19.60
2017-09-23T18:35:42.627Z,19.27
2017-09-23T18:38:10.074Z,20.15
2017-09-23T18:40:37.536Z,19.70
2017-09-23T18:43:05.166Z,21.12
2017-09-23T18:45:32.648Z,20.30
2017-09-23T18:48:00.097Z,21.48
2017-09-23T18:50:27.558Z,20.50
2017-09-23T18:52:55.006Z,19.08
2017-09-23T18:55:22.462Z,17.20
2017-09-23T18:57:49.924Z,17.05
2017-09-23T19:00:17.380Z,14.70
2017-09-23T19:02:45.006Z,13.27
2017-09-23T19:05:12.483Z,13.90
2017-09-23T19:07:40.017Z,14.00
2017-09-23T19:10:07.498Z,16.50
2017-09-23T19:12:37.086Z,15.87
2017-09-23T19:15:04.521Z,15.02
2017-09-23T19:17:32.005Z,16.67
2017-09-23T19:19:59.450Z,15.23
2017-09-23T19:22:26.928Z,16.87
2017-09-23T19:24:54.507Z,14.70
2017-09-23T19:27:21.958Z,14.57
2017-09-23T19:29:49.522Z,14.55
2017-09-23T19:32:16.956Z,13.55
2017-09-23T19:34:44.441Z,14.57
2017-09-23T19:37:11.874Z,12.90
2017-09-23T19:39:39.360Z,13.18
2017-09-23T19:42:07.632Z,12.55
2017-09-23T19:44:35.103Z,12.20
2017-09-23T19:47:04.027Z,13.00
2017-09-23T19:49:31.502Z,12.98
2017-09-23T19:51:58.950Z,12.52
2017-09-23T19:54:26.422Z,12.95
2017-09-23T19:56:53.875Z,13.18
2017-09-23T19:59:21.374Z,14.70
2017-09-23T20:01:49.708Z,13.93
2017-09-23T20:04:17.166Z,14.73
2017-09-23T20:06:44.630Z,15.13
2017-09-23T20:09:12.159Z,15.32
2017-09-23T20:11:39.647Z,16.40
2017-09-23T20:14:07.108Z,16.15
2017-09-23T20:16:34.573Z,17.10
2017-09-23T20:19:02.026Z,15.98
2017-09-23T20:21:29.572Z,15.90
2017-09-23T20:23:57.035Z,15.23
2017-09-23T20:26:24.579Z,15.10
2017-09-23T20:28:52.025Z,15.95
2017-09-23T20:31:19.553Z,16.20
2017-09-23T20:33:47.100Z,16.40
2017-09-23T20:36:15.311Z,17.23
2017-09-23T20:38:42.853Z,17.00
2017-09-23T20:41:10.417Z,17.75
2017-09-23T20:43:37.934Z,16.27
2017-09-23T20:46:06.170Z,17.60
2017-09-23T20:48:33.629Z,18.67
2017-09-23T20:51:01.279Z,18.42
2017-09-23T20:53:28.752Z,19.77
2017-09-23T20:55:56.313Z,18.90
2017-09-23T20:58:23.754Z,19.02
2017-09-23T21:00:51.202Z,18.80
2017-09-23T21:03:18.790Z,17.67
2017-09-23T21:05:46.249Z,18.53
2017-09-23T21:08:13.682Z,19.45
2017-09-23T21:10:41.133Z,19.05
2017-09-23T21:13:08.687Z,22.60
2017-09-23T21:15:36.143Z,20.17
2017-09-23T21:18:03.606Z,21.42
2017-09-23T21:20:31.070Z,21.40
2017-09-23T21:22:58.543Z,20.62
2017-09-23T21:25:26.067Z,22.83
2017-09-23T21:27:53.510Z,24.45
2017-09-23T21:30:21.007Z,21.27
2017-09-23T21:32:48.506Z,21.08
2017-09-23T21:35:16.022Z,21.75
2017-09-23T21:37:43.472Z,23.10
2017-09-23T21:40:10.924Z,24.37
2017-09-23T21:42:38.375Z,24.33
2017-09-23T21:45:06.027Z,24.20
2017-09-23T21:47:33.542Z,26.40
2017-09-23T21:50:01.767Z,25.15
2017-09-23T21:52:29.208Z,23.62
2017-09-23T21:54:57.534Z,24.25
2017-09-23T21:57:25.106Z,23.77
2017-09-23T21:59:53.424Z,24.30
2017-09-23T22:02:20.898Z,23.10
2017-09-23T22:04:48.368Z,43.00
2017-09-23T22:07:15.804Z,23.62
2017-09-23T22:09:43.246Z,24.33
2017-09-23T22:12:10.707Z,24.48
2017-09-23T22:14:38.194Z,24.37
2017-09-23T22:17:07.142Z,25.37
2017-09-23T22:19:34.638Z,24.35
2017-09-23T22:22:02.083Z,24.52
2017-09-23T22:24:29.553Z,25.00
2017-09-23T22:26:57.014Z,25.75
2017-09-23T22:29:24.484Z,24.50
2017-09-23T22:31:52.015Z,26.48
2017-09-23T22:34:19.471Z,26.48
2017-09-23T22:36:47.030Z,27.90
2017-09-23T22:39:14.478Z,26.10
2017-09-23T22:41:41.942Z,26.42
2017-09-23T22:44:09.408Z,27.58
2017-09-23T22:46:36.851Z,26.50
2017-09-23T22:49:04.306Z,26.83
2017-09-23T22:51:31.816Z,25.98
2017-09-23T22:54:00.852Z,27.40
2017-09-23T22:56:28.310Z,27.40
2017-09-23T22:58:55.737Z,27.70
2017-09-23T23:01:23.239Z,26.73
2017-09-23T23:03:50.675Z,29.35
2017-09-23T23:06:18.138Z,29.75
2017-09-23T23:08:45.674Z,29.10
2017-09-23T23:11:13.166Z,32.75
2017-09-23T23:13:40.618Z,28.52
2017-09-23T23:16:08.087Z,28.50
2017-09-23T23:18:35.734Z,28.75
2017-09-23T23:21:03.183Z,28.17
2017-09-23T23:23:30.632Z,26.70
2017-09-23T23:25:58.107Z,28.80
2017-09-23T23:28:25.571Z,29.42
2017-09-23T23:30:53.022Z,28.92
2017-09-23T23:33:20.479Z,29.33
2017-09-23T23:35:47.918Z,30.50
2017-09-23T23:38:15.359Z,27.90
2017-09-23T23:40:42.811Z,29.67
2017-09-23T23:43:10.342Z,29.77
2017-09-23T23:45:37.788Z,29.45
2017-09-23T23:48:05.998Z,29.83
2017-09-23T23:50:33.477Z,29.87
2017-09-23T23:53:00.947Z,30.48
2017-09-23T23:55:28.388Z,28.75
2017-09-23T23:57:55.857Z,30.90
